Time;durP1;ratioP1;P1;durP2;ratioP2;P2;SDS_P1;SDS_P2;PMS_P1;PMS_P2;Temp;Humidity;BMP_temperature;BMP_pressure;BME280_temperature;BME280_humidity;BME280_pressure;Samples;Min_cycle;Max_cycle;Signal;HPM_P1;HPM_P2
2023/03/06 00:02:09;;;;;;;15.82;9.18;;;;;;;1.55;100.00;98573.88;5063576;28;20033;-60
2023/03/06 00:04:34;;;;;;;13.77;8.65;;;;;;;1.53;100.00;98578.59;5065116;28;20439;-60
2023/03/06 00:07:00;;;;;;;16.65;8.57;;;;;;;1.49;100.00;98576.31;5065395;28;20024;-60
2023/03/06 00:09:25;;;;;;;16.15;9.52;;;;;;;1.48;100.00;98569.41;5065961;28;20106;-60
2023/03/06 00:11:51;;;;;;;14.10;8.57;;;;;;;1.51;100.00;98562.94;5068985;28;20486;-60
2023/03/06 00:14:16;;;;;;;14.52;8.65;;;;;;;1.49;100.00;98560.47;5083082;28;20028;-60
2023/03/06 00:16:42;;;;;;;15.30;8.73;;;;;;;1.44;100.00;98557.63;5076417;28;20366;-60
2023/03/06 00:19:07;;;;;;;14.88;8.73;;;;;;;1.45;100.00;98548.69;5080811;28;20028;-61
2023/03/06 00:21:32;;;;;;;14.80;9.10;;;;;;;1.50;100.00;98551.56;5085276;28;20437;-61
2023/03/06 00:23:58;;;;;;;15.85;8.65;;;;;;;1.44;100.00;98547.06;5079975;28;20402;-60
2023/03/06 00:26:23;;;;;;;15.40;9.23;;;;;;;1.42;100.00;98549.09;5082912;28;20049;-60
2023/03/06 00:28:49;;;;;;;15.55;9.23;;;;;;;1.41;100.00;98544.00;5082429;28;20037;-60
2023/03/06 00:31:14;;;;;;;14.20;8.05;;;;;;;1.43;100.00;98542.00;5085749;28;20036;-60
2023/03/06 00:33:41;;;;;;;14.43;8.48;;;;;;;1.42;100.00;98532.44;5075009;28;20462;-60
2023/03/06 00:36:06;;;;;;;13.75;7.82;;;;;;;1.39;100.00;98538.13;5053870;28;20116;-60
2023/03/06 00:38:34;;;;;;;14.27;8.30;;;;;;;1.39;100.00;98527.56;5079593;28;20027;-60
2023/03/06 00:41:05;;;;;;;13.70;7.43;;;;;;;1.41;100.00;98526.34;5079217;28;20044;-60
2023/03/06 00:43:31;;;;;;;12.27;8.18;;;;;;;1.41;100.00;98528.16;5078174;28;20092;-60
2023/03/06 00:45:56;;;;;;;13.15;7.75;;;;;;;1.43;100.00;98524.31;5073918;28;20450;-60
2023/03/06 00:48:22;;;;;;;11.50;7.22;;;;;;;1.43;100.00;98518.22;5082185;28;20015;-60
2023/03/06 00:50:47;;;;;;;12.57;7.53;;;;;;;1.42;100.00;98521.88;5091843;28;20052;-61
2023/03/06 00:53:12;;;;;;;15.85;7.45;;;;;;;1.44;100.00;98520.66;5091503;28;20024;-60
2023/03/06 00:55:38;;;;;;;14.25;9.10;;;;;;;1.25;100.00;98514.34;5089216;28;20012;-60
2023/03/06 00:58:03;;;;;;;13.40;8.63;;;;;;;1.27;100.00;98508.84;5080287;28;20028;-60
2023/03/06 01:00:29;;;;;;;15.27;8.95;;;;;;;1.25;100.00;98510.88;5083850;28;20381;-60
2023/03/06 01:02:54;;;;;;;13.65;8.85;;;;;;;1.20;100.00;98508.00;5086597;28;20047;-60
2023/03/06 01:05:20;;;;;;;16.40;8.63;;;;;;;1.15;100.00;98507.78;5088225;28;20043;-60
2023/03/06 01:07:45;;;;;;;15.25;8.85;;;;;;;1.18;100.00;98494.22;5069098;28;20032;-60
2023/03/06 01:10:11;;;;;;;15.05;8.63;;;;;;;1.15;100.00;98495.44;5057765;28;20036;-60
2023/03/06 01:12:36;;;;;;;16.15;9.10;;;;;;;1.12;100.00;98492.34;5075268;28;20052;-60
2023/03/06 01:15:03;;;;;;;13.77;7.78;;;;;;;1.13;100.00;98480.81;5075577;28;20123;-60
2023/03/06 01:17:28;;;;;;;13.82;8.65;;;;;;;1.19;100.00;98490.53;5076238;28;20028;-60
2023/03/06 01:19:54;;;;;;;15.68;8.85;;;;;;;1.13;100.00;98488.72;5087506;28;20145;-60
2023/03/06 01:22:19;;;;;;;11.75;7.55;;;;;;;1.22;100.00;98480.41;5075970;28;20024;-60
2023/03/06 01:24:45;;;;;;;11.93;7.22;;;;;;;1.34;100.00;98488.53;5077514;28;20032;-60
2023/03/06 01:27:10;;;;;;;11.70;7.65;;;;;;;1.20;100.00;98482.44;5082344;28;20031;-60
2023/03/06 01:29:35;;;;;;;15.38;8.30;;;;;;;1.06;100.00;98486.06;5072357;28;20039;-60
2023/03/06 01:32:01;;;;;;;15.65;8.25;;;;;;;0.99;100.00;98475.47;5078418;28;20032;-60
2023/03/06 01:34:26;;;;;;;13.95;7.57;;;;;;;0.97;100.00;98480.13;5065589;28;20035;-60
2023/03/06 01:36:52;;;;;;;16.20;8.32;;;;;;;0.97;100.00;98469.56;5082812;28;20040;-60
2023/03/06 01:39:17;;;;;;;15.05;8.65;;;;;;;0.92;100.00;98468.53;5085193;28;21447;-60
2023/03/06 01:41:43;;;;;;;18.08;9.88;;;;;;;0.91;100.00;98462.47;5081350;28;20024;-60
2023/03/06 01:44:12;;;;;;;15.50;8.70;;;;;;;0.90;100.00;98455.56;5075523;28;20029;-60
2023/03/06 01:46:41;;;;;;;14.73;8.88;;;;;;;0.85;100.00;98464.09;5078858;28;20054;-60
2023/03/06 01:49:12;;;;;;;16.05;9.55;;;;;;;0.88;100.00;98457.59;5083159;28;20032;-59
2023/03/06 01:51:39;;;;;;;19.77;9.65;;;;;;;0.80;100.00;98449.84;5057287;28;20032;-60
2023/03/06 01:54:08;;;;;;;14.05;8.50;;;;;;;0.79;100.00;98442.94;5080356;28;20028;-60
2023/03/06 01:56:33;;;;;;;14.10;8.43;;;;;;;0.80;100.00;98439.28;5069090;28;20173;-60
2023/03/06 01:58:59;;;;;;;10.15;6.40;;;;;;;0.78;100.00;98436.06;5086914;28;20545;-60
2023/03/06 02:01:24;;;;;;;18.25;10.18;;;;;;;0.76;100.00;98443.34;5083792;28;20085;-60
2023/03/06 02:03:50;;;;;;;16.48;9.05;;;;;;;0.71;100.00;98438.66;5063476;28;20475;-60
2023/03/06 02:06:18;;;;;;;17.10;9.48;;;;;;;0.75;100.00;98426.72;5084240;28;20032;-60
2023/03/06 02:08:45;;;;;;;16.05;9.32;;;;;;;0.72;100.00;98434.19;5079830;28;20023;-60
2023/03/06 02:11:13;;;;;;;24.33;10.40;;;;;;;0.73;100.00;98427.94;5076863;28;20711;-60
2023/03/06 02:13:38;;;;;;;17.15;8.48;;;;;;;0.76;100.00;98427.53;5059011;28;20047;-60
2023/03/06 02:16:04;;;;;;;18.58;10.07;;;;;;;0.80;100.00;98421.66;5051420;28;20493;-60
2023/03/06 02:18:30;;;;;;;18.88;10.25;;;;;;;0.78;100.00;98421.03;5077731;28;20415;-60
2023/03/06 02:21:01;;;;;;;17.00;10.18;;;;;;;0.76;100.00;98419.59;5081338;28;20032;-60
2023/03/06 02:23:47;;;;;;;14.98;8.38;;;;;;;0.74;100.00;98417.16;5074766;28;20115;-60
2023/03/06 02:26:12;;;;;;;20.73;11.40;;;;;;;0.70;100.00;98412.47;5058393;28;20041;-60
2023/03/06 02:28:38;;;;;;;19.98;10.43;;;;;;;0.72;100.00;98408.63;5055842;28;20023;-60
2023/03/06 02:31:04;;;;;;;19.00;10.48;;;;;;;0.66;100.00;98401.53;5076111;28;20123;-60
2023/03/06 02:33:30;;;;;;;18.85;9.57;;;;;;;0.67;100.00;98403.13;5072227;28;20110;-60
2023/03/06 02:36:03;;;;;;;13.32;7.35;;;;;;;0.62;100.00;98411.66;5077744;28;20036;-60
2023/03/06 02:38:35;;;;;;;23.08;11.23;;;;;;;0.66;100.00;98406.00;5079315;28;20089;-60
2023/03/06 02:41:00;;;;;;;14.30;8.73;;;;;;;0.70;100.00;98405.41;5088543;28;20101;-60
2023/03/06 02:43:27;;;;;;;17.50;10.30;;;;;;;0.72;100.00;98413.91;5061756;28;20728;-60
2023/03/06 02:45:53;;;;;;;13.75;8.02;;;;;;;0.72;100.00;98399.91;5070343;28;20042;-60
2023/03/06 02:48:18;;;;;;;18.25;9.98;;;;;;;0.72;100.00;98402.53;5070608;28;20039;-60
2023/03/06 02:50:44;;;;;;;19.10;10.50;;;;;;;0.75;100.00;98402.13;5083093;28;20028;-60
2023/03/06 02:53:10;;;;;;;18.20;10.45;;;;;;;0.76;100.00;98403.78;5078129;28;20032;-60
2023/03/06 02:55:36;;;;;;;20.08;10.30;;;;;;;0.72;100.00;98390.16;5078141;28;20056;-60
2023/03/06 02:58:01;;;;;;;19.92;9.82;;;;;;;0.78;100.00;98385.94;5077861;28;20056;-60
2023/03/06 03:00:27;;;;;;;17.35;9.93;;;;;;;0.78;100.00;98388.56;5070956;28;20449;-60
2023/03/06 03:02:52;;;;;;;17.17;9.85;;;;;;;0.77;100.00;98393.00;5078344;28;20024;-60
2023/03/06 03:05:18;;;;;;;16.25;9.15;;;;;;;0.79;100.00;98385.72;5081901;28;20717;-60
2023/03/06 03:07:43;;;;;;;18.05;8.98;;;;;;;0.84;100.00;98387.75;5075986;28;20081;-60
2023/03/06 03:10:10;;;;;;;13.85;8.60;;;;;;;0.86;100.00;98380.47;5058006;28;20020;-60
2023/03/06 03:12:35;;;;;;;15.23;8.05;;;;;;;0.89;100.00;98380.06;5028675;28;1155880;-60
2023/03/06 03:15:00;;;;;;;15.13;8.15;;;;;;;0.84;100.00;98379.84;5090908;28;20048;-60
2023/03/06 03:17:27;;;;;;;18.85;9.20;;;;;;;0.90;100.00;98384.34;5070382;28;20207;-59
2023/03/06 03:19:52;;;;;;;13.70;7.93;;;;;;;0.92;100.00;98384.13;5077782;28;20120;-60
2023/03/06 03:22:18;;;;;;;13.32;8.10;;;;;;;0.90;100.00;98381.69;5077078;28;20032;-59
2023/03/06 03:24:43;;;;;;;12.68;7.88;;;;;;;0.90;100.00;98373.78;5080560;28;20248;-60
2023/03/06 03:27:09;;;;;;;12.82;8.23;;;;;;;0.98;100.00;98384.13;5080846;28;20024;-60
2023/03/06 03:29:34;;;;;;;12.65;7.47;;;;;;;0.99;100.00;98374.38;5079825;28;20051;-60
2023/03/06 03:31:59;;;;;;;12.75;7.65;;;;;;;0.98;100.00;98378.84;5060613;28;20032;-60
2023/03/06 03:34:25;;;;;;;16.63;8.68;;;;;;;0.92;100.00;98379.66;5080574;28;20084;-60
2023/03/06 03:36:50;;;;;;;15.98;8.77;;;;;;;0.83;100.00;98372.94;5069644;28;20109;-60
2023/03/06 03:39:16;;;;;;;14.93;8.85;;;;;;;0.80;100.00;98368.06;5078557;28;20028;-60
2023/03/06 03:41:41;;;;;;;15.27;8.50;;;;;;;0.84;100.00;98366.66;5081016;28;20080;-60
2023/03/06 03:44:07;;;;;;;15.18;8.90;;;;;;;0.84;100.00;98366.66;5055778;28;20402;-60
2023/03/06 03:46:32;;;;;;;13.35;8.23;;;;;;;0.85;100.00;98370.94;5079291;28;20027;-59
2023/03/06 03:48:58;;;;;;;16.75;9.38;;;;;;;0.81;100.00;98373.16;5077800;28;20039;-60
2023/03/06 03:51:23;;;;;;;11.45;7.07;;;;;;;0.81;100.00;98369.69;5082088;28;20028;-61
2023/03/06 03:53:49;;;;;;;13.57;7.47;;;;;;;0.91;100.00;98366.66;5086985;28;20028;-60
2023/03/06 03:56:14;;;;;;;13.13;7.05;;;;;;;0.90;100.00;98360.59;5083750;28;20028;-60
2023/03/06 03:58:40;;;;;;;13.68;8.00;;;;;;;0.87;100.00;98360.97;5080682;28;20171;-60
2023/03/06 04:01:05;;;;;;;13.60;8.20;;;;;;;0.89;100.00;98364.22;5077327;28;20032;-60
2023/03/06 04:03:31;;;;;;;12.70;7.72;;;;;;;0.86;100.00;98359.34;5075571;28;20035;-60
2023/03/06 04:05:57;;;;;;;12.10;8.05;;;;;;;0.85;100.00;98352.47;5085187;28;20028;-60
2023/03/06 04:08:23;;;;;;;12.13;7.38;;;;;;;0.86;100.00;98351.44;5078976;28;20272;-60
2023/03/06 04:10:50;;;;;;;12.18;7.28;;;;;;;0.86;100.00;98351.44;5089030;28;20108;-60
2023/03/06 04:13:19;;;;;;;13.55;7.80;;;;;;;0.90;100.00;98343.91;5078023;28;20067;-60
2023/03/06 04:15:46;;;;;;;12.03;7.53;;;;;;;0.85;100.00;98344.56;5060183;28;20112;-59
2023/03/06 04:18:11;;;;;;;13.23;7.25;;;;;;;0.90;100.00;98339.47;5081625;28;20067;-60
2023/03/06 04:20:37;;;;;;;10.30;7.28;;;;;;;0.85;100.00;98337.44;5079412;28;20023;-60
2023/03/06 04:23:02;;;;;;;11.40;6.80;;;;;;;0.85;100.00;98334.00;5082533;28;20507;-60
2023/03/06 04:25:27;;;;;;;12.10;7.50;;;;;;;0.86;100.00;98325.88;5061505;28;20387;-59
2023/03/06 04:27:53;;;;;;;12.25;7.55;;;;;;;0.89;100.00;98332.56;5087260;28;20473;-60
2023/03/06 04:30:18;;;;;;;11.43;7.13;;;;;;;0.91;100.00;98327.09;5081341;28;20486;-60
2023/03/06 04:32:44;;;;;;;13.85;7.70;;;;;;;0.92;100.00;98332.16;5050917;28;20028;-60
2023/03/06 04:35:09;;;;;;;13.55;8.32;;;;;;;0.92;100.00;98318.97;5057181;28;20029;-60
2023/03/06 04:37:35;;;;;;;10.95;6.88;;;;;;;0.92;99.66;98316.31;5082796;28;20031;-60
2023/03/06 04:40:00;;;;;;;11.95;7.68;;;;;;;0.94;99.26;98311.66;5078093;28;20105;-60
2023/03/06 04:42:25;;;;;;;11.27;7.68;;;;;;;0.96;98.88;98314.91;5075306;28;20025;-60
2023/03/06 04:44:51;;;;;;;12.27;7.80;;;;;;;0.98;98.36;98312.88;5076048;28;20105;-60
2023/03/06 04:47:16;;;;;;;12.43;6.95;;;;;;;0.98;98.18;98320.00;5071508;28;20456;-60
2023/03/06 04:49:42;;;;;;;13.18;8.23;;;;;;;1.04;98.34;98309.44;5065719;28;20032;-59
2023/03/06 04:52:07;;;;;;;14.60;7.78;;;;;;;0.99;98.85;98314.50;5074071;28;20028;-60
2023/03/06 04:54:33;;;;;;;13.75;8.80;;;;;;;0.98;98.48;98312.09;5082243;28;20082;-60
2023/03/06 04:56:58;;;;;;;15.85;8.05;;;;;;;1.02;98.62;98308.84;5081929;28;20375;-60
2023/03/06 04:59:23;;;;;;;13.45;8.63;;;;;;;1.00;98.09;98308.22;5060655;28;20493;-59
2023/03/06 05:01:49;;;;;;;11.93;7.57;;;;;;;1.05;98.06;98302.34;5075447;28;20020;-60
2023/03/06 05:04:14;;;;;;;13.10;8.25;;;;;;;1.01;96.86;98303.75;5091186;28;20056;-60
2023/03/06 05:06:40;;;;;;;13.80;8.57;;;;;;;1.00;97.69;98304.75;5063909;28;20021;-60
2023/03/06 05:09:05;;;;;;;15.98;8.48;;;;;;;0.98;98.33;98299.69;5075943;28;20020;-59
2023/03/06 05:11:31;;;;;;;12.43;7.93;;;;;;;0.98;98.13;98302.34;5075603;28;20024;-60
2023/03/06 05:13:56;;;;;;;16.38;8.65;;;;;;;1.00;98.16;98292.41;5075433;28;20353;-60
2023/03/06 05:16:21;;;;;;;13.55;7.93;;;;;;;0.95;98.63;98294.84;5073839;28;20036;-60
2023/03/06 05:18:47;;;;;;;13.38;8.35;;;;;;;0.96;98.21;98295.63;5076002;28;20016;-60
2023/03/06 05:21:12;;;;;;;19.33;9.35;;;;;;;0.94;97.97;98295.84;5062933;28;20029;-60
2023/03/06 05:23:38;;;;;;;15.35;8.50;;;;;;;0.96;98.27;98295.63;5075504;28;20051;-60
2023/03/06 05:26:07;;;;;;;13.88;7.97;;;;;;;0.90;98.75;98292.00;5075556;28;20040;-60
2023/03/06 05:28:33;;;;;;;15.63;8.45;;;;;;;0.96;98.70;98291.16;5041433;28;20016;-59
2023/03/06 05:30:58;;;;;;;14.02;8.77;;;;;;;0.96;98.90;98295.63;5074398;28;20039;-60
2023/03/06 05:33:25;;;;;;;17.20;9.20;;;;;;;0.95;99.03;98294.84;5074454;28;20090;-60
2023/03/06 05:35:50;;;;;;;16.38;8.85;;;;;;;1.02;99.60;98290.38;5073317;28;20463;-60
2023/03/06 05:38:16;;;;;;;19.55;9.52;;;;;;;0.98;99.23;98297.06;5080339;28;20032;-60
2023/03/06 05:40:42;;;;;;;16.05;9.00;;;;;;;1.01;99.04;98290.56;5074103;28;20020;-60
2023/03/06 05:43:07;;;;;;;15.25;9.52;;;;;;;1.02;99.39;98290.38;5078647;28;20051;-60
2023/03/06 05:45:34;;;;;;;14.02;9.40;;;;;;;0.96;99.60;98287.72;5080435;28;20027;-60
2023/03/06 05:47:59;;;;;;;21.45;12.80;;;;;;;0.98;100.00;98294.41;5060733;28;20150;-60
2023/03/06 05:50:25;;;;;;;15.00;9.25;;;;;;;0.99;100.00;98288.13;5078781;28;20032;-60
2023/03/06 05:52:50;;;;;;;15.73;9.45;;;;;;;1.06;100.00;98290.75;5078477;28;20031;-60
2023/03/06 05:55:15;;;;;;;16.27;9.07;;;;;;;1.06;99.71;98290.75;5071830;28;20025;-60
2023/03/06 05:57:41;;;;;;;19.00;10.05;;;;;;;0.94;99.15;98289.75;5073845;28;20036;-60
2023/03/06 06:00:08;;;;;;;16.95;9.90;;;;;;;0.85;99.39;98283.88;5061170;28;20028;-59
2023/03/06 06:02:33;;;;;;;16.15;9.25;;;;;;;0.88;99.49;98283.47;5071399;28;20051;-60
2023/03/06 06:05:00;;;;;;;17.23;10.30;;;;;;;0.86;99.44;98290.75;5077091;28;20374;-60
2023/03/06 06:07:26;;;;;;;16.42;9.65;;;;;;;0.78;100.00;98288.34;5081944;28;20028;-60
2023/03/06 06:09:51;;;;;;;16.88;9.98;;;;;;;0.84;100.00;98292.78;5080709;28;20047;-60
2023/03/06 06:12:17;;;;;;;15.80;9.02;;;;;;;0.80;100.00;98286.28;5087139;28;20055;-60
2023/03/06 06:14:42;;;;;;;14.43;8.73;;;;;;;0.74;100.00;98295.00;5079992;28;20040;-60
2023/03/06 06:17:08;;;;;;;16.10;9.40;;;;;;;0.77;100.00;98290.13;5076583;28;20032;-60
2023/03/06 06:19:33;;;;;;;14.55;8.93;;;;;;;0.65;100.00;98294.41;5078956;28;20051;-60
2023/03/06 06:22:01;;;;;;;16.25;9.60;;;;;;;0.71;100.00;98290.16;5084406;28;20098;-60
2023/03/06 06:24:26;;;;;;;15.20;9.77;;;;;;;0.87;100.00;98292.38;5064691;28;20167;-59
2023/03/06 06:26:53;;;;;;;16.20;9.52;;;;;;;0.76;100.00;98285.88;5080269;28;20028;-60
2023/03/06 06:29:18;;;;;;;15.73;8.45;;;;;;;0.63;100.00;98281.41;5083045;28;20501;-59
2023/03/06 06:31:44;;;;;;;14.68;8.52;;;;;;;0.67;100.00;98286.28;5082076;28;20028;-60
2023/03/06 06:34:09;;;;;;;16.08;9.10;;;;;;;0.73;100.00;98285.50;5081213;28;20033;-60
2023/03/06 06:36:35;;;;;;;16.40;9.13;;;;;;;0.82;100.00;98285.09;5080542;28;20027;-60
2023/03/06 06:39:00;;;;;;;16.38;10.02;;;;;;;0.75;100.00;98280.81;5080335;28;20036;-59
2023/03/06 06:41:26;;;;;;;15.32;9.25;;;;;;;0.72;100.00;98278.56;5087320;28;20020;-60
2023/03/06 06:43:52;;;;;;;18.27;10.85;;;;;;;0.70;100.00;98280.59;5060063;28;20032;-59
2023/03/06 06:46:17;;;;;;;19.98;9.40;;;;;;;0.70;100.00;98275.31;5089662;28;20031;-59
2023/03/06 06:48:43;;;;;;;16.38;9.80;;;;;;;0.69;100.00;98285.06;5075125;28;20031;-58
2023/03/06 06:51:08;;;;;;;14.20;8.60;;;;;;;0.77;100.00;98282.22;5083940;28;21153;-59
2023/03/06 06:53:34;;;;;;;20.90;10.40;;;;;;;0.66;100.00;98280.19;5085571;28;20074;-58
2023/03/06 06:55:59;;;;;;;18.02;10.23;;;;;;;0.60;100.00;98268.63;5077682;28;20128;-59
2023/03/06 06:58:25;;;;;;;35.10;11.85;;;;;;;0.68;100.00;98272.09;5090004;28;20063;-59
2023/03/06 07:00:50;;;;;;;18.65;10.95;;;;;;;0.69;100.00;98277.16;5097693;28;20059;-59
2023/03/06 07:03:16;;;;;;;17.83;9.98;;;;;;;0.75;100.00;98283.44;5089328;28;20102;-59
2023/03/06 07:05:41;;;;;;;16.63;9.95;;;;;;;0.76;100.00;98275.34;5080917;28;20028;-59
2023/03/06 07:08:07;;;;;;;17.23;9.43;;;;;;;0.78;100.00;98278.59;5080478;28;20040;-59
2023/03/06 07:10:32;;;;;;;16.40;9.63;;;;;;;0.85;100.00;98281.25;5060836;28;20394;-59
2023/03/06 07:12:58;;;;;;;16.00;9.45;;;;;;;0.92;100.00;98279.38;5080680;28;20060;-59
2023/03/06 07:15:25;;;;;;;18.52;9.40;;;;;;;0.91;100.00;98280.41;5070895;28;20427;-59
2023/03/06 07:17:51;;;;;;;16.98;10.43;;;;;;;1.01;100.00;98291.38;5063862;28;20100;-59
2023/03/06 07:20:18;;;;;;;18.42;10.60;;;;;;;1.03;100.00;98291.97;5077147;28;20538;-59
2023/03/06 07:22:43;;;;;;;16.90;9.60;;;;;;;1.07;100.00;98290.56;5085174;28;20403;-60
2023/03/06 07:25:09;;;;;;;17.35;10.52;;;;;;;1.07;100.00;98290.56;5057905;28;20071;-59
2023/03/06 07:27:34;;;;;;;18.38;10.50;;;;;;;1.11;100.00;98296.25;5078413;28;20082;-60
2023/03/06 07:30:00;;;;;;;18.25;10.23;;;;;;;1.14;100.00;98297.66;5087401;28;20093;-60
2023/03/06 07:32:25;;;;;;;15.88;8.48;;;;;;;1.11;100.00;98293.59;5081813;28;20036;-59
2023/03/06 07:34:51;;;;;;;21.08;11.13;;;;;;;1.11;100.00;98290.16;5087730;28;20043;-59
2023/03/06 07:37:16;;;;;;;17.50;10.07;;;;;;;1.11;100.00;98295.44;5088223;28;20032;-59
2023/03/06 07:39:42;;;;;;;18.15;10.07;;;;;;;1.07;100.00;98302.94;5075819;28;20036;-59
2023/03/06 07:42:09;;;;;;;15.75;9.43;;;;;;;1.13;100.00;98303.97;5076099;28;20028;-59
2023/03/06 07:44:36;;;;;;;18.63;11.02;;;;;;;1.12;100.00;98304.97;5054980;28;20115;-59
2023/03/06 07:47:02;;;;;;;18.58;10.98;;;;;;;1.13;100.00;98306.59;5086982;28;20039;-59
2023/03/06 07:49:27;;;;;;;19.92;10.98;;;;;;;1.13;100.00;98312.69;5084826;28;20024;-59
2023/03/06 07:51:53;;;;;;;17.25;10.20;;;;;;;1.13;100.00;98310.03;5083710;28;20028;-59
2023/03/06 07:54:18;;;;;;;17.67;10.48;;;;;;;1.23;100.00;98317.56;5074111;28;20091;-59
2023/03/06 07:56:44;;;;;;;16.98;10.52;;;;;;;1.27;100.00;98310.84;5086434;28;20023;-59
2023/03/06 07:59:10;;;;;;;14.70;9.75;;;;;;;1.29;100.00;98319.38;5090434;28;20494;-59
2023/03/06 08:01:38;;;;;;;17.35;10.27;;;;;;;1.46;100.00;98322.41;5058503;28;20208;-59
2023/03/06 08:04:04;;;;;;;18.23;11.07;;;;;;;1.53;100.00;98323.19;5078584;28;20060;-59
2023/03/06 08:06:29;;;;;;;20.90;11.48;;;;;;;1.57;99.91;98313.81;5087379;28;20171;-59
2023/03/06 08:08:55;;;;;;;17.10;10.18;;;;;;;1.45;99.63;98316.31;5075356;28;20692;-59
2023/03/06 08:11:22;;;;;;;16.35;10.73;;;;;;;1.55;99.70;98320.34;5079922;28;20019;-59
2023/03/06 08:13:47;;;;;;;20.02;10.77;;;;;;;1.71;97.22;98320.72;5076707;28;20108;-59
2023/03/06 08:16:13;;;;;;;18.98;10.40;;;;;;;1.90;94.75;98319.03;5064135;28;20114;-59
2023/03/06 08:18:38;;;;;;;18.42;10.15;;;;;;;1.97;94.20;98319.00;5082442;28;20405;-59
2023/03/06 08:21:08;;;;;;;17.52;10.65;;;;;;;2.19;92.81;98321.34;5083509;28;20036;-59
2023/03/06 08:23:34;;;;;;;19.00;10.77;;;;;;;2.21;90.20;98316.69;5061245;28;20034;-59
2023/03/06 08:26:01;;;;;;;18.30;10.27;;;;;;;2.29;88.18;98319.88;5080413;28;20271;-60
2023/03/06 08:28:27;;;;;;;20.75;10.18;;;;;;;2.41;88.28;98313.94;5080663;28;20381;-59
2023/03/06 08:30:53;;;;;;;17.75;9.70;;;;;;;2.76;87.69;98312.47;5083681;28;20493;-59
2023/03/06 08:33:18;;;;;;;16.85;10.15;;;;;;;3.08;84.90;98320.41;5083171;28;20130;-59
2023/03/06 08:35:44;;;;;;;19.73;10.25;;;;;;;3.12;82.53;98318.13;5081151;28;20047;-59
2023/03/06 08:38:09;;;;;;;19.13;10.00;;;;;;;3.22;81.44;98321.91;5079573;28;20348;-59
2023/03/06 08:40:34;;;;;;;16.38;9.60;;;;;;;3.36;80.16;98321.78;5082071;28;20032;-59
2023/03/06 08:43:00;;;;;;;18.55;9.02;;;;;;;3.52;79.34;98326.53;5082005;28;20078;-59
2023/03/06 08:45:25;;;;;;;13.70;9.52;;;;;;;3.76;77.91;98321.41;5080129;28;20016;-59
2023/03/06 08:47:51;;;;;;;15.07;9.57;;;;;;;3.99;76.88;98329.47;5079043;28;20051;-59
2023/03/06 08:50:17;;;;;;;16.75;9.73;;;;;;;4.46;74.97;98326.25;5080508;28;20024;-59
2023/03/06 08:52:43;;;;;;;17.65;9.43;;;;;;;4.32;74.08;98330.94;5077715;28;20032;-59
2023/03/06 08:55:08;;;;;;;13.90;8.75;;;;;;;4.41;73.00;98323.47;5071348;28;20449;-59
2023/03/06 08:57:34;;;;;;;16.27;9.45;;;;;;;4.72;72.47;98330.41;5075247;28;20052;-59
2023/03/06 08:59:59;;;;;;;17.13;9.98;;;;;;;4.41;72.81;98329.59;5071874;28;20062;-59
2023/03/06 09:02:25;;;;;;;18.45;10.52;;;;;;;4.83;71.15;98321.66;5085628;28;20035;-59
2023/03/06 09:04:50;;;;;;;15.88;9.85;;;;;;;4.60;72.30;98326.91;5078923;28;20401;-59
2023/03/06 09:07:16;;;;;;;14.73;8.95;;;;;;;4.36;72.41;98328.66;5075720;28;20089;-60
2023/03/06 09:09:41;;;;;;;16.88;9.05;;;;;;;4.50;71.92;98328.25;5064765;28;20458;-59
2023/03/06 09:12:07;;;;;;;14.43;8.50;;;;;;;4.51;72.08;98335.16;5079588;28;20048;-59
2023/03/06 09:14:32;;;;;;;16.85;9.70;;;;;;;4.26;72.61;98331.81;5079780;28;20028;-59
2023/03/06 09:16:57;;;;;;;16.15;9.25;;;;;;;4.25;71.84;98332.88;5076191;28;20127;-59
2023/03/06 09:19:23;;;;;;;11.85;7.93;;;;;;;4.11;71.76;98335.66;5073272;28;20032;-59
2023/03/06 09:21:48;;;;;;;15.00;9.23;;;;;;;4.15;72.24;98332.59;5072777;28;20028;-59
2023/03/06 09:24:14;;;;;;;15.63;8.65;;;;;;;4.16;73.30;98331.53;5055434;28;20054;-59
2023/03/06 09:26:39;;;;;;;13.55;8.27;;;;;;;4.10;72.05;98328.75;5040744;28;20036;-59
2023/03/06 09:29:05;;;;;;;12.98;8.60;;;;;;;3.92;71.56;98339.38;5079714;28;20051;-59
2023/03/06 09:31:31;;;;;;;15.40;8.70;;;;;;;4.01;71.34;98342.53;5077421;28;20494;-59
2023/03/06 09:33:56;;;;;;;19.75;12.50;;;;;;;3.87;71.55;98332.09;5077839;28;20040;-59
2023/03/06 09:36:22;;;;;;;13.80;9.30;;;;;;;3.71;72.66;98334.50;5073959;28;20343;-59
2023/03/06 09:38:48;;;;;;;18.25;10.25;;;;;;;3.58;73.19;98330.16;5068699;28;20016;-59
2023/03/06 09:41:22;;;;;;;17.98;9.38;;;;;;;3.50;72.47;98331.25;5064183;28;20024;-59
2023/03/06 09:43:48;;;;;;;13.95;8.40;;;;;;;3.63;71.98;98325.81;5064460;28;20029;-59
2023/03/06 09:46:36;;;;;;;13.73;8.38;;;;;;;3.68;72.08;98331.25;5044320;28;20038;-59
2023/03/06 09:49:29;;;;;;;15.20;8.77;;;;;;;3.80;70.35;98328.69;5073191;28;20040;-59
2023/03/06 09:52:20;;;;;;;14.80;8.32;;;;;;;4.14;70.32;98323.81;5058720;28;20044;-59
2023/03/06 09:55:11;;;;;;;15.73;9.07;;;;;;;4.37;69.51;98327.59;5066880;28;20044;-60
2023/03/06 09:57:55;;;;;;;;;;;;;;;4.41;69.23;98328.78;5074039;28;20043;-58
2023/03/06 10:00:29;;;;;;;12.98;8.63;;;;;;;4.16;68.94;98323.59;5078008;28;19924;-58
2023/03/06 10:03:22;;;;;;;14.70;9.50;;;;;;;4.58;68.94;98329.78;5080698;28;20467;-61
2023/03/06 10:05:51;;;;;;;16.70;9.05;;;;;;;5.04;67.24;98328.28;5076675;28;20040;-59
2023/03/06 10:08:34;;;;;;;15.45;9.40;;;;;;;5.05;65.62;98326.44;5082005;28;20032;-58
2023/03/06 10:11:02;;;;;;;19.80;10.52;;;;;;;5.91;63.12;98326.78;5064519;28;20024;-60
2023/03/06 10:13:44;;;;;;;13.93;9.02;;;;;;;6.47;62.04;98330.59;5085573;28;20036;-61
2023/03/06 10:16:30;;;;;;;16.77;10.18;;;;;;;8.09;55.82;98320.06;5064248;28;20036;-60
2023/03/06 10:18:59;;;;;;;16.13;10.48;;;;;;;7.50;56.77;98322.44;5084256;28;20036;-60
2023/03/06 10:21:32;;;;;;;13.82;8.73;;;;;;;8.10;54.42;98321.66;5059796;28;20030;-60
2023/03/06 10:24:35;;;;;;;13.48;8.98;;;;;;;7.54;56.07;98324.38;5074932;28;20124;-60
2023/03/06 10:27:39;;;;;;;17.52;8.73;;;;;;;7.64;54.72;98325.56;5082661;28;20031;-60
2023/03/06 10:30:32;;;;;;;14.38;9.23;;;;;;;7.06;56.11;98316.97;5019613;28;20463;-60
2023/03/06 10:32:59;;;;;;;14.52;8.85;;;;;;;6.52;58.92;98317.38;5017302;28;20493;-60
2023/03/06 10:35:49;;;;;;;13.75;8.63;;;;;;;6.00;58.84;98325.41;5045690;28;20505;-60
2023/03/06 10:38:30;;;;;;;15.40;8.67;;;;;;;6.75;56.92;98315.66;5059800;28;20028;-61
2023/03/06 10:41:11;;;;;;;13.65;8.98;;;;;;;6.40;56.84;98320.09;5079292;28;20039;-60
2023/03/06 10:43:43;;;;;;;16.63;8.82;;;;;;;6.46;57.96;98319.16;5075465;28;20020;-60
2023/03/06 10:46:13;;;;;;;15.20;9.13;;;;;;;6.16;58.68;98310.56;5054146;28;20058;-60
2023/03/06 10:48:40;;;;;;;15.73;9.93;;;;;;;5.90;59.28;98312.69;5061564;28;20114;-60
2023/03/06 10:51:09;;;;;;;16.27;10.13;;;;;;;5.90;59.95;98311.88;5075916;28;20629;-60
2023/03/06 10:53:34;;;;;;;15.50;9.68;;;;;;;6.68;58.54;98315.78;5073713;28;20508;-60
2023/03/06 10:56:00;;;;;;;17.10;9.77;;;;;;;6.59;58.00;98307.41;5077551;28;20039;-59
2023/03/06 10:58:26;;;;;;;15.55;10.45;;;;;;;7.27;56.36;98313.59;5062932;28;20099;-59
2023/03/06 11:01:11;;;;;;;16.55;9.82;;;;;;;6.66;56.55;98302.75;5079653;28;20039;-59
2023/03/06 11:03:37;;;;;;;17.33;9.85;;;;;;;6.24;56.89;98315.50;5064007;28;20111;-60
2023/03/06 11:06:06;;;;;;;16.10;10.43;;;;;;;6.94;56.02;98309.06;5076549;28;20079;-60
2023/03/06 11:08:32;;;;;;;16.10;10.60;;;;;;;7.85;54.41;98314.13;5069322;28;20062;-60
2023/03/06 11:11:03;;;;;;;19.33;10.80;;;;;;;7.50;53.67;98307.25;5075661;28;20025;-60
2023/03/06 11:13:31;;;;;;;19.65;11.70;;;;;;;7.47;54.11;98310.41;5076408;28;20047;-60
2023/03/06 11:16:01;;;;;;;21.67;14.15;;;;;;;7.46;53.46;98306.16;5080549;28;20028;-59
2023/03/06 11:18:34;;;;;;;21.60;13.60;;;;;;;7.40;53.84;98301.78;5061968;28;20467;-60
2023/03/06 11:21:03;;;;;;;17.27;11.02;;;;;;;7.84;53.27;98306.38;5079014;28;20402;-59
2023/03/06 11:23:38;;;;;;;19.17;13.30;;;;;;;8.47;51.13;98304.22;5079288;28;20088;-60
2023/03/06 11:26:15;;;;;;;16.85;10.63;;;;;;;8.78;50.23;98295.44;5074117;28;20043;-59
2023/03/06 11:29:00;;;;;;;19.83;11.15;;;;;;;8.61;50.63;98300.06;5075447;28;20116;-59